Time;durP1;ratioP1;P1;durP2;ratioP2;P2;SDS_P1;SDS_P2;PMS_P1;PMS_P2;Temp;Humidity;BMP_temperature;BMP_pressure;BME280_temperature;BME280_humidity;BME280_pressure;Samples;Min_cycle;Max_cycle;Signal;HPM_P1;HPM_P2
2023/06/30 00:01:39;;;;;;;8.03;4.40;;;;;;;;;;5032631;28;20199;-70
2023/06/30 00:04:06;;;;;;;8.50;5.33;;;;;;;;;;5033806;28;20202;-70
2023/06/30 00:06:32;;;;;;;8.27;4.20;;;;;;;;;;5033413;28;20221;-70
2023/06/30 00:08:58;;;;;;;6.68;4.60;;;;;;;;;;5032386;28;20415;-70
2023/06/30 00:11:24;;;;;;;7.70;5.60;;;;;;;;;;5032242;28;20836;-70
2023/06/30 00:13:52;;;;;;;9.03;4.67;;;;;;;;;;5033556;28;20182;-70
2023/06/30 00:16:17;;;;;;;6.57;5.00;;;;;;;;;;5033428;28;20587;-70
2023/06/30 00:18:43;;;;;;;8.20;5.13;;;;;;;;;;5016332;28;20198;-70
2023/06/30 00:21:09;;;;;;;8.87;4.90;;;;;;;;;;5033112;28;20202;-70
2023/06/30 00:23:35;;;;;;;6.57;4.80;;;;;;;;;;5033162;28;20233;-70
2023/06/30 00:26:01;;;;;;;8.13;5.67;;;;;;;;;;5032992;28;20175;-69
2023/06/30 00:28:27;;;;;;;7.67;5.50;;;;;;;;;;5032771;28;20194;-70
2023/06/30 00:30:53;;;;;;;11.57;6.13;;;;;;;;;;5032914;28;20739;-70
2023/06/30 00:33:19;;;;;;;10.17;7.97;;;;;;;;;;5015511;28;20179;-70
2023/06/30 00:35:45;;;;;;;10.93;7.37;;;;;;;;;;5032897;28;20653;-70
2023/06/30 00:38:11;;;;;;;14.13;7.30;;;;;;;;;;5015533;28;20202;-70
2023/06/30 00:40:37;;;;;;;12.27;7.23;;;;;;;;;;5015369;28;20229;-69
2023/06/30 00:43:03;;;;;;;10.30;7.90;;;;;;;;;;5015128;28;20577;-70
2023/06/30 00:45:29;;;;;;;11.43;7.67;;;;;;;;;;5015097;28;20612;-70
2023/06/30 00:47:55;;;;;;;13.20;8.93;;;;;;;;;;5033056;28;20183;-70
2023/06/30 00:50:21;;;;;;;14.50;9.70;;;;;;;;;;5033185;28;20237;-70
2023/06/30 00:52:49;;;;;;;11.20;9.60;;;;;;;;;;5015025;28;20580;-70
2023/06/30 00:55:15;;;;;;;21.57;10.10;;;;;;;;;;5015161;28;20211;-70
2023/06/30 00:57:42;;;;;;;17.13;10.50;;;;;;;;;;5033061;28;20290;-70
2023/06/30 01:00:11;;;;;;;15.73;8.97;;;;;;;;;;5015251;28;20760;-70
2023/06/30 01:02:44;;;;;;;14.73;7.97;;;;;;;;;;5033011;28;20225;-70
2023/06/30 01:05:10;;;;;;;13.63;7.90;;;;;;;;;;5032929;28;20179;-70
2023/06/30 01:07:38;;;;;;;19.00;8.60;;;;;;;;;;5015752;28;20575;-71
2023/06/30 01:10:07;;;;;;;12.10;7.97;;;;;;;;;;5014662;28;20214;-70
2023/06/30 01:12:33;;;;;;;12.77;7.40;;;;;;;;;;5032698;28;20188;-71
2023/06/30 01:15:00;;;;;;;12.13;7.27;;;;;;;;;;5035769;28;20262;-70
2023/06/30 01:17:26;;;;;;;13.13;8.00;;;;;;;;;;5018228;28;20183;-71
2023/06/30 01:19:54;;;;;;;12.87;7.43;;;;;;;;;;5036167;28;20183;-70
2023/06/30 01:22:24;;;;;;;18.37;7.53;;;;;;;;;;5035972;28;20557;-70
2023/06/30 01:24:51;;;;;;;18.63;8.00;;;;;;;;;;5036222;28;20182;-70
2023/06/30 01:27:20;;;;;;;13.07;7.93;;;;;;;;;;5036055;28;20183;-71
2023/06/30 01:29:46;;;;;;;14.27;7.90;;;;;;;;;;5036029;28;20186;-69
2023/06/30 01:32:16;;;;;;;10.97;7.47;;;;;;;;;;5017858;28;20193;-70
2023/06/30 01:34:46;;;;;;;16.43;8.40;;;;;;;;;;5018050;28;20175;-69
2023/06/30 01:37:12;;;;;;;13.97;7.80;;;;;;;;;;5035653;28;20650;-71
2023/06/30 01:39:40;;;;;;;14.97;8.60;;;;;;;;;;5035818;28;20724;-69
2023/06/30 01:42:06;;;;;;;16.07;7.93;;;;;;;;;;5020398;28;20207;-69
2023/06/30 01:44:32;;;;;;;12.20;9.40;;;;;;;;;;5035586;28;20178;-69
2023/06/30 01:46:58;;;;;;;13.60;9.20;;;;;;;;;;5035381;28;20612;-70
2023/06/30 01:49:24;;;;;;;13.07;8.90;;;;;;;;;;5017558;28;20183;-69
2023/06/30 01:51:50;;;;;;;11.23;8.47;;;;;;;;;;5035420;28;20207;-69
2023/06/30 01:54:16;;;;;;;17.03;9.37;;;;;;;;;;5035171;28;20183;-69
2023/06/30 01:56:49;;;;;;;18.30;9.37;;;;;;;;;;5035445;28;20175;-69
2023/06/30 01:59:14;;;;;;;13.57;9.57;;;;;;;;;;5035085;28;20265;-69
2023/06/30 02:01:40;;;;;;;13.83;9.47;;;;;;;;;;5035185;28;20244;-69
2023/06/30 02:04:06;;;;;;;16.40;9.13;;;;;;;;;;5035338;28;20179;-69
2023/06/30 02:06:32;;;;;;;15.37;9.33;;;;;;;;;;5035760;28;20175;-69
2023/06/30 02:08:58;;;;;;;16.73;10.40;;;;;;;;;;5035037;28;20183;-69
2023/06/30 02:11:24;;;;;;;15.07;10.00;;;;;;;;;;5034684;28;20222;-69
2023/06/30 02:13:50;;;;;;;22.67;9.60;;;;;;;;;;5017207;28;20182;-69
2023/06/30 02:16:16;;;;;;;23.67;10.40;;;;;;;;;;5035008;28;20183;-69
2023/06/30 02:18:42;;;;;;;15.33;9.00;;;;;;;;;;5017007;28;20207;-69
2023/06/30 02:21:08;;;;;;;25.10;10.47;;;;;;;;;;5034752;28;20222;-69
2023/06/30 02:23:34;;;;;;;15.90;9.50;;;;;;;;;;5016730;28;20183;-69
2023/06/30 02:26:00;;;;;;;19.63;9.70;;;;;;;;;;5034757;28;20174;-69
2023/06/30 02:28:26;;;;;;;18.20;10.57;;;;;;;;;;5034583;28;20179;-69
2023/06/30 02:30:53;;;;;;;21.30;11.33;;;;;;;;;;5034516;28;20627;-70
2023/06/30 02:33:19;;;;;;;16.70;10.30;;;;;;;;;;5035148;28;20225;-70
2023/06/30 02:35:45;;;;;;;21.40;10.67;;;;;;;;;;5017115;28;20286;-70
2023/06/30 02:38:11;;;;;;;18.90;12.10;;;;;;;;;;5034314;28;20199;-70
2023/06/30 02:40:37;;;;;;;15.20;9.53;;;;;;;;;;5016631;28;20211;-70
2023/06/30 02:43:03;;;;;;;17.27;8.90;;;;;;;;;;5016733;28;20179;-70
2023/06/30 02:45:29;;;;;;;17.57;10.87;;;;;;;;;;5034261;28;20284;-70
2023/06/30 02:47:55;;;;;;;18.20;8.50;;;;;;;;;;5034548;28;20186;-70
2023/06/30 02:50:31;;;;;;;13.67;9.23;;;;;;;;;;5034126;28;20195;-70
2023/06/30 02:52:58;;;;;;;16.90;7.73;;;;;;;;;;5016489;28;20190;-70
2023/06/30 02:55:24;;;;;;;16.17;7.80;;;;;;;;;;5016406;28;20640;-70
2023/06/30 02:57:50;;;;;;;19.50;9.80;;;;;;;;;;5016214;28;20210;-70
2023/06/30 03:00:16;;;;;;;15.53;8.37;;;;;;;;;;5034101;28;20194;-69
2023/06/30 03:02:42;;;;;;;15.27;8.50;;;;;;;;;;5033957;28;20222;-69
2023/06/30 03:05:09;;;;;;;13.77;7.10;;;;;;;;;;5016103;28;20183;-69
2023/06/30 03:07:35;;;;;;;15.87;7.17;;;;;;;;;;5034242;28;20210;-70
2023/06/30 03:10:00;;;;;;;14.27;7.40;;;;;;;;;;5034056;28;20198;-70
2023/06/30 03:12:26;;;;;;;20.60;7.30;;;;;;;;;;5034203;28;20172;-69
2023/06/30 03:14:53;;;;;;;14.07;7.37;;;;;;;;;;5033973;28;20264;-69
2023/06/30 03:17:18;;;;;;;13.87;7.30;;;;;;;;;;5033652;28;20649;-70
2023/06/30 03:19:44;;;;;;;13.93;7.07;;;;;;;;;;5033843;28;20195;-69
2023/06/30 03:22:11;;;;;;;16.83;7.40;;;;;;;;;;5016051;28;20676;-69
2023/06/30 03:24:37;;;;;;;19.93;7.60;;;;;;;;;;5034281;28;20183;-69
2023/06/30 03:27:03;;;;;;;15.83;6.87;;;;;;;;;;5035387;28;20332;-69
2023/06/30 03:29:29;;;;;;;16.63;6.73;;;;;;;;;;5037200;28;20179;-71
2023/06/30 03:31:55;;;;;;;19.67;6.70;;;;;;;;;;5033537;28;20708;-69
2023/06/30 03:34:20;;;;;;;23.63;6.40;;;;;;;;;;5015842;28;20672;-68
2023/06/30 03:36:46;;;;;;;14.80;5.60;;;;;;;;;;5015038;28;20191;-69
2023/06/30 03:39:12;;;;;;;16.67;6.67;;;;;;;;;;5033528;28;20276;-70
2023/06/30 03:41:38;;;;;;;16.37;6.83;;;;;;;;;;5015518;28;20198;-70
2023/06/30 03:44:04;;;;;;;17.93;6.87;;;;;;;;;;5033313;28;20182;-70
2023/06/30 03:46:30;;;;;;;15.93;6.23;;;;;;;;;;5033369;28;20233;-70
2023/06/30 03:48:56;;;;;;;14.00;6.20;;;;;;;;;;5015565;28;20183;-70
2023/06/30 03:51:22;;;;;;;14.73;5.70;;;;;;;;;;5015592;28;20207;-69
2023/06/30 03:53:48;;;;;;;14.83;6.60;;;;;;;;;;5033226;28;20240;-70
2023/06/30 03:56:14;;;;;;;16.90;5.80;;;;;;;;;;5033491;28;20179;-70
2023/06/30 03:58:40;;;;;;;19.37;6.43;;;;;;;;;;5033602;28;20568;-70
2023/06/30 04:01:06;;;;;;;12.20;5.80;;;;;;;;;;5033121;28;20202;-70
2023/06/30 04:03:33;;;;;;;11.37;5.00;;;;;;;;;;5033220;28;20547;-70
2023/06/30 04:05:59;;;;;;;12.57;5.20;;;;;;;;;;5033114;28;20189;-70
2023/06/30 04:08:25;;;;;;;16.20;5.17;;;;;;;;;;5033234;28;20183;-70
2023/06/30 04:10:51;;;;;;;9.80;4.90;;;;;;;;;;5032899;28;20218;-70
2023/06/30 04:13:17;;;;;;;15.30;5.07;;;;;;;;;;5057594;22;20314;-66
2023/06/30 04:15:43;;;;;;;16.60;5.67;;;;;;;;;;5035192;28;20557;-66
2023/06/30 04:18:09;;;;;;;16.63;5.70;;;;;;;;;;5053324;28;20746;-66
2023/06/30 04:20:35;;;;;;;12.13;5.20;;;;;;;;;;5053343;28;20202;-66
2023/06/30 04:23:01;;;;;;;15.90;6.00;;;;;;;;;;5035161;28;20236;-66
2023/06/30 04:25:27;;;;;;;14.03;4.90;;;;;;;;;;5035025;28;20179;-66
2023/06/30 04:27:53;;;;;;;11.43;5.10;;;;;;;;;;5053124;28;20182;-66
2023/06/30 04:30:19;;;;;;;14.00;5.00;;;;;;;;;;5053422;28;20266;-66
2023/06/30 04:32:45;;;;;;;8.87;4.47;;;;;;;;;;5052768;28;20687;-65
2023/06/30 04:35:11;;;;;;;11.67;4.67;;;;;;;;;;5035097;28;20186;-65
2023/06/30 04:37:40;;;;;;;15.63;5.20;;;;;;;;;;5052976;28;20183;-63
2023/06/30 04:40:10;;;;;;;11.50;4.77;;;;;;;;;;5034947;28;20254;-65
2023/06/30 04:42:36;;;;;;;9.63;4.13;;;;;;;;;;5035115;28;20289;-65
2023/06/30 04:45:02;;;;;;;13.90;4.80;;;;;;;;;;5053041;28;20182;-66
2023/06/30 04:47:28;;;;;;;12.67;4.53;;;;;;;;;;5054095;28;20265;-65
2023/06/30 04:49:54;;;;;;;17.50;4.90;;;;;;;;;;5056602;28;20604;-64
2023/06/30 04:52:20;;;;;;;10.33;4.43;;;;;;;;;;5057016;28;20276;-65
2023/06/30 04:54:46;;;;;;;11.97;4.27;;;;;;;;;;5038561;28;20190;-65
2023/06/30 04:57:12;;;;;;;12.87;4.23;;;;;;;;;;5056620;28;20174;-65
2023/06/30 04:59:38;;;;;;;10.93;4.40;;;;;;;;;;5038517;28;20283;-65
2023/06/30 05:02:04;;;;;;;9.63;3.73;;;;;;;;;;5038345;28;20185;-64
2023/06/30 05:04:31;;;;;;;11.40;3.93;;;;;;;;;;5038436;28;20550;-65
2023/06/30 05:06:57;;;;;;;11.73;4.17;;;;;;;;;;5056341;28;20175;-65
2023/06/30 05:09:23;;;;;;;12.80;4.67;;;;;;;;;;5038115;28;20244;-65
2023/06/30 05:11:50;;;;;;;11.73;4.23;;;;;;;;;;5038406;28;20277;-64
2023/06/30 05:14:16;;;;;;;14.53;4.97;;;;;;;;;;5055969;28;20703;-65
2023/06/30 05:16:42;;;;;;;14.77;4.27;;;;;;;;;;5056418;28;20641;-65
2023/06/30 05:19:08;;;;;;;;;;;;;;;;;;5056650;28;20092;-65
2023/06/30 05:21:34;;;;;;;;;;;;;;;;;;5038553;28;19904;-65
2023/06/30 05:24:00;;;;;;;;;;;;;;;;;;5056330;28;19927;-65
2023/06/30 05:26:25;;;;;;;;;;;;;;;;;;5056190;28;20046;-65
2023/06/30 05:28:51;;;;;;;;;;;;;;;;;;5056226;28;19905;-67
2023/06/30 05:31:17;;;;;;;;;;;;;;;;;;5056127;28;20311;-65
2023/06/30 05:33:43;;;;;;;;;;;;;;;;;;5056154;28;19912;-65
2023/06/30 05:36:09;;;;;;;9.47;4.10;;;;;;;;;;5055923;28;20184;-65
2023/06/30 05:38:35;;;;;;;8.83;4.17;;;;;;;;;;5055498;28;20210;-66
2023/06/30 05:41:01;;;;;;;14.47;4.30;;;;;;;;;;5037657;28;20177;-65
2023/06/30 05:43:27;;;;;;;12.03;4.73;;;;;;;;;;5055607;28;20741;-65
2023/06/30 05:45:53;;;;;;;13.13;4.07;;;;;;;;;;5055916;28;20174;-65
2023/06/30 05:48:20;;;;;;;14.27;4.33;;;;;;;;;;5055620;28;20592;-65
2023/06/30 05:50:46;;;;;;;13.17;4.00;;;;;;;;;;5037665;28;20278;-65
2023/06/30 05:53:12;;;;;;;8.90;3.87;;;;;;;;;;5055465;28;20277;-65
2023/06/30 05:55:38;;;;;;;15.00;3.70;;;;;;;;;;5056159;28;20642;-64
2023/06/30 05:58:04;;;;;;;16.57;4.27;;;;;;;;;;5055476;28;20278;-65
2023/06/30 06:00:30;;;;;;;7.33;3.30;;;;;;;;;;5054987;28;20182;-65
2023/06/30 06:02:56;;;;;;;12.93;4.07;;;;;;;;;;5055356;28;20575;-65
2023/06/30 06:05:22;;;;;;;13.07;4.47;;;;;;;;;;5055190;28;20175;-65
2023/06/30 06:07:51;;;;;;;16.97;3.80;;;;;;;;;;5055335;28;20177;-65
2023/06/30 06:10:17;;;;;;;10.40;3.83;;;;;;;;;;5055418;28;20175;-65
2023/06/30 06:12:43;;;;;;;12.03;3.60;;;;;;;;;;5055087;28;20206;-65
2023/06/30 06:15:09;;;;;;;9.93;3.70;;;;;;;;;;5037192;28;20554;-66
2023/06/30 06:17:35;;;;;;;8.13;2.93;;;;;;;;;;5055145;28;20179;-65
2023/06/30 06:20:01;;;;;;;8.20;2.97;;;;;;;;;;5037107;28;20205;-65
2023/06/30 06:22:27;;;;;;;15.63;3.43;;;;;;;;;;5055028;28;20256;-65
2023/06/30 06:24:53;;;;;;;12.07;3.50;;;;;;;;;;5036927;28;20186;-65
2023/06/30 06:27:19;;;;;;;7.50;3.20;;;;;;;;;;5037344;28;20235;-65
2023/06/30 06:29:45;;;;;;;10.93;3.10;;;;;;;;;;5054910;28;20185;-65
2023/06/30 06:32:11;;;;;;;9.20;2.90;;;;;;;;;;5054721;28;20551;-65
2023/06/30 06:34:38;;;;;;;9.37;2.80;;;;;;;;;;5055133;28;20536;-65
2023/06/30 06:37:04;;;;;;;9.13;3.03;;;;;;;;;;5054469;28;20659;-65
2023/06/30 06:39:30;;;;;;;4.93;3.03;;;;;;;;;;5054649;28;20236;-65
2023/06/30 06:41:56;;;;;;;14.30;3.50;;;;;;;;;;5055093;28;20632;-65
2023/06/30 06:44:22;;;;;;;10.43;3.40;;;;;;;;;;5036431;28;20198;-65
2023/06/30 06:47:08;;;;;;;11.47;2.83;;;;;;;;;;5036392;28;20236;-65
2023/06/30 06:49:34;;;;;;;12.43;3.47;;;;;;;;;;5036463;28;20185;-65
2023/06/30 06:52:00;;;;;;;8.80;2.63;;;;;;;;;;5036358;28;20183;-65
2023/06/30 06:54:26;;;;;;;7.87;2.67;;;;;;;;;;5036455;28;20265;-65
2023/06/30 06:56:52;;;;;;;10.63;2.97;;;;;;;;;;5037100;28;20206;-65
2023/06/30 06:59:18;;;;;;;6.30;2.93;;;;;;;;;;5038197;28;20202;-65
2023/06/30 07:01:44;;;;;;;9.33;2.73;;;;;;;;;;5036843;28;20201;-65
2023/06/30 07:04:10;;;;;;;5.43;2.33;;;;;;;;;;5054454;28;20327;-65
2023/06/30 07:06:36;;;;;;;6.30;2.57;;;;;;;;;;5055052;28;20181;-64
2023/06/30 07:09:02;;;;;;;8.37;2.80;;;;;;;;;;5036143;28;20182;-65
2023/06/30 07:11:28;;;;;;;6.33;2.50;;;;;;;;;;5036158;28;20272;-64
2023/06/30 07:13:54;;;;;;;7.60;2.20;;;;;;;;;;5035982;28;20214;-64
2023/06/30 07:16:21;;;;;;;7.97;2.70;;;;;;;;;;5035974;28;20185;-64
2023/06/30 07:18:47;;;;;;;11.07;2.60;;;;;;;;;;5053657;28;20205;-64
2023/06/30 07:21:13;;;;;;;6.73;2.40;;;;;;;;;;5053972;28;20170;-64
2023/06/30 07:23:39;;;;;;;6.37;2.27;;;;;;;;;;5053815;28;20579;-64
2023/06/30 07:26:05;;;;;;;10.27;2.23;;;;;;;;;;5036210;28;20220;-66
2023/06/30 07:28:31;;;;;;;7.03;2.60;;;;;;;;;;5035667;28;20183;-69
2023/06/30 07:30:57;;;;;;;7.47;2.67;;;;;;;;;;5035948;28;20248;-66
2023/06/30 07:33:23;;;;;;;8.07;3.23;;;;;;;;;;5036038;28;20198;-67
2023/06/30 07:35:49;;;;;;;9.63;2.53;;;;;;;;;;5053979;28;20182;-66
2023/06/30 07:38:15;;;;;;;5.63;2.50;;;;;;;;;;5053861;28;20718;-65
2023/06/30 07:40:41;;;;;;;5.77;2.67;;;;;;;;;;5053531;28;20171;-66
2023/06/30 07:43:08;;;;;;;4.63;2.07;;;;;;;;;;5036135;28;20225;-66
2023/06/30 07:45:34;;;;;;;5.57;2.00;;;;;;;;;;5035572;28;20293;-66
2023/06/30 07:48:00;;;;;;;4.13;1.87;;;;;;;;;;5053325;28;20202;-66
2023/06/30 07:50:26;;;;;;;9.17;2.40;;;;;;;;;;5035446;28;20562;-66
2023/06/30 07:52:52;;;;;;;6.43;1.90;;;;;;;;;;5053433;28;20615;-66
2023/06/30 07:55:18;;;;;;;7.20;1.80;;;;;;;;;;5053374;28;20253;-66
2023/06/30 07:57:45;;;;;;;6.23;2.20;;;;;;;;;;5053372;28;20232;-66
2023/06/30 08:00:11;;;;;;;4.63;1.87;;;;;;;;;;5053262;28;20181;-67
2023/06/30 08:02:37;;;;;;;4.93;2.10;;;;;;;;;;5035017;28;20201;-66
2023/06/30 08:05:04;;;;;;;7.83;2.30;;;;;;;;;;5035394;28;20663;-66
2023/06/30 08:07:30;;;;;;;4.93;1.80;;;;;;;;;;5035222;28;20185;-66
2023/06/30 08:09:56;;;;;;;6.43;2.07;;;;;;;;;;5053089;28;20723;-66
2023/06/30 08:12:22;;;;;;;4.73;1.80;;;;;;;;;;5053197;28;20293;-66
2023/06/30 08:14:48;;;;;;;5.33;2.00;;;;;;;;;;5035226;28;20250;-66
2023/06/30 08:17:17;;;;;;;5.80;1.80;;;;;;;;;;5052897;28;20186;-66
2023/06/30 08:19:43;;;;;;;5.87;2.00;;;;;;;;;;5052928;28;20209;-66
2023/06/30 08:22:13;;;;;;;6.43;2.20;;;;;;;;;;5053329;28;20186;-65
2023/06/30 08:24:41;;;;;;;5.73;1.73;;;;;;;;;;5056814;28;20181;-66
2023/06/30 08:27:07;;;;;;;5.93;1.93;;;;;;;;;;5056965;28;20183;-65
2023/06/30 08:29:33;;;;;;;7.03;1.67;;;;;;;;;;5039074;28;20283;-64
2023/06/30 08:31:59;;;;;;;4.00;1.90;;;;;;;;;;5056732;28;20664;-64
2023/06/30 08:34:26;;;;;;;3.00;1.90;;;;;;;;;;5056864;28;20182;-64
2023/06/30 08:36:53;;;;;;;4.00;1.63;;;;;;;;;;5056700;28;20175;-64
2023/06/30 08:39:19;;;;;;;4.73;2.33;;;;;;;;;;5056510;28;20205;-64
2023/06/30 08:41:45;;;;;;;5.63;2.03;;;;;;;;;;5056632;28;20205;-64
2023/06/30 08:44:11;;;;;;;7.07;2.10;;;;;;;;;;5056461;28;20228;-64
2023/06/30 08:46:38;;;;;;;2.63;2.00;;;;;;;;;;5038441;28;20181;-64
2023/06/30 08:49:04;;;;;;;3.20;1.80;;;;;;;;;;5056370;28;20228;-64
2023/06/30 08:51:30;;;;;;;4.93;2.00;;;;;;;;;;5038883;28;20179;-64
2023/06/30 08:53:57;;;;;;;4.27;2.03;;;;;;;;;;5056488;28;20252;-65
2023/06/30 08:56:23;;;;;;;4.03;2.17;;;;;;;;;;5038435;28;20240;-65
2023/06/30 08:58:49;;;;;;;3.63;2.00;;;;;;;;;;5038414;28;20252;-64
2023/06/30 09:01:15;;;;;;;5.13;2.00;;;;;;;;;;5056475;28;20206;-64
2023/06/30 09:03:41;;;;;;;5.60;2.00;;;;;;;;;;5056321;28;20203;-64
2023/06/30 09:06:09;;;;;;;4.53;2.23;;;;;;;;;;5038686;28;20179;-64
2023/06/30 09:08:53;;;;;;;2.90;1.83;;;;;;;;;;5057622;28;20186;-64
2023/06/30 09:11:20;;;;;;;5.77;2.33;;;;;;;;;;5056462;28;20197;-64
2023/06/30 09:13:47;;;;;;;4.67;2.03;;;;;;;;;;5056783;28;20301;-64
2023/06/30 09:16:17;;;;;;;4.33;1.93;;;;;;;;;;5038242;28;20178;-64
2023/06/30 09:18:43;;;;;;;5.07;1.93;;;;;;;;;;5038778;28;20225;-64
2023/06/30 09:21:10;;;;;;;7.33;2.50;;;;;;;;;;5056564;28;20229;-64
2023/06/30 09:23:36;;;;;;;7.17;2.37;;;;;;;;;;5055986;28;20197;-64
2023/06/30 09:26:02;;;;;;;5.53;2.10;;;;;;;;;;5056162;28;20179;-64
2023/06/30 09:28:34;;;;;;;3.27;2.17;;;;;;;;;;5037979;28;20287;-65
2023/06/30 09:31:02;;;;;;;7.17;2.00;;;;;;;;;;5055870;28;20167;-64
2023/06/30 09:33:28;;;;;;;6.37;2.23;;;;;;;;;;5037873;28;20194;-64
2023/06/30 09:35:56;;;;;;;3.73;1.80;;;;;;;;;;5056019;28;20170;-64
2023/06/30 09:38:22;;;;;;;4.37;1.73;;;;;;;;;;5038003;28;20205;-65
2023/06/30 09:40:49;;;;;;;2.93;1.70;;;;;;;;;;5038677;28;20542;-65
2023/06/30 09:43:18;;;;;;;5.33;1.93;;;;;;;;;;5055921;28;20741;-65
2023/06/30 09:45:45;;;;;;;3.60;1.70;;;;;;;;;;5058192;28;20647;-65
2023/06/30 09:48:11;;;;;;;3.47;1.90;;;;;;;;;;5037847;28;20296;-65
2023/06/30 09:50:38;;;;;;;3.83;2.07;;;;;;;;;;5055547;28;20210;-65
2023/06/30 09:53:04;;;;;;;5.13;2.00;;;;;;;;;;5055400;28;20281;-66
2023/06/30 09:55:30;;;;;;;6.90;1.90;;;;;;;;;;5055754;28;20193;-66
2023/06/30 09:57:56;;;;;;;2.63;1.70;;;;;;;;;;5037730;28;20648;-66
2023/06/30 10:00:23;;;;;;;4.03;1.87;;;;;;;;;;5038011;28;20228;-66
2023/06/30 10:03:06;;;;;;;5.77;2.13;;;;;;;;;;5038839;28;20202;-66
2023/06/30 10:05:32;;;;;;;3.70;1.90;;;;;;;;;;5057234;28;20166;-66
2023/06/30 10:08:00;;;;;;;4.47;2.07;;;;;;;;;;5057213;28;20229;-66
2023/06/30 10:10:26;;;;;;;6.33;2.13;;;;;;;;;;5038460;28;20182;-65
2023/06/30 10:12:53;;;;;;;3.30;2.10;;;;;;;;;;5038300;28;20308;-66
2023/06/30 10:15:19;;;;;;;7.13;2.57;;;;;;;;;;5056811;28;20258;-66
2023/06/30 10:17:46;;;;;;;7.57;2.50;;;;;;;;;;5070754;22;20260;-68
2023/06/30 10:20:12;;;;;;;5.67;1.93;;;;;;;;;;5055407;28;20205;-68
2023/06/30 10:22:38;;;;;;;5.50;2.33;;;;;;;;;;5037643;28;20212;-69
2023/06/30 10:25:07;;;;;;;9.13;2.10;;;;;;;;;;5037392;28;20657;-68
2023/06/30 10:27:34;;;;;;;4.23;1.70;;;;;;;;;;5036708;28;20229;-68
2023/06/30 10:30:00;;;;;;;4.47;1.97;;;;;;;;;;5036743;28;20229;-69
2023/06/30 10:32:26;;;;;;;7.00;1.93;;;;;;;;;;5055629;28;20312;-68
2023/06/30 10:34:52;;;;;;;5.03;2.00;;;;;;;;;;5055295;28;20227;-68
2023/06/30 10:37:18;;;;;;;5.07;2.00;;;;;;;;;;5054714;28;20239;-68
2023/06/30 10:39:44;;;;;;;4.77;2.10;;;;;;;;;;5054683;28;20280;-69
2023/06/30 10:42:15;;;;;;;7.40;2.20;;;;;;;;;;5054953;28;20664;-68
2023/06/30 10:44:44;;;;;;;5.90;3.30;;;;;;;;;;5054674;28;20583;-69
2023/06/30 10:47:10;;;;;;;6.07;2.70;;;;;;;;;;5054640;28;20190;-68
2023/06/30 10:49:38;;;;;;;5.20;2.07;;;;;;;;;;5037535;28;20185;-68
2023/06/30 10:52:08;;;;;;;7.03;2.33;;;;;;;;;;5036488;28;20179;-69
2023/06/30 10:54:37;;;;;;;4.77;2.30;;;;;;;;;;5036443;28;20193;-70
2023/06/30 10:57:14;;;;;;;4.63;2.13;;;;;;;;;;5054874;28;20198;-68
2023/06/30 11:00:00;;;;;;;3.20;1.90;;;;;;;;;;5054439;28;20198;-69
2023/06/30 11:02:30;;;;;;;4.20;2.13;;;;;;;;;;5054364;28;20201;-70
2023/06/30 11:04:59;;;;;;;4.87;2.20;;;;;;;;;;5054508;28;20629;-69
2023/06/30 11:07:26;;;;;;;4.70;2.00;;;;;;;;;;5053899;28;20582;-68
2023/06/30 11:09:52;;;;;;;3.83;1.97;;;;;;;;;;5036156;28;20198;-69
2023/06/30 11:12:19;;;;;;;6.17;2.20;;;;;;;;;;5054034;28;20175;-68
2023/06/30 11:14:58;;;;;;;2.63;1.83;;;;;;;;;;5035860;28;20525;-68
2023/06/30 11:17:25;;;;;;;6.90;2.13;;;;;;;;;;5053793;28;20241;-68
2023/06/30 11:20:10;;;;;;;4.80;2.00;;;;;;;;;;5053754;28;20202;-68
2023/06/30 11:22:36;;;;;;;4.90;2.37;;;;;;;;;;5054030;28;20206;-68
2023/06/30 11:25:08;;;;;;;7.27;2.00;;;;;;;;;;5053928;28;20181;-69
2023/06/30 11:27:35;;;;;;;5.90;2.00;;;;;;;;;;5036695;28;20288;-68
2023/06/30 11:30:01;;;;;;;4.37;2.20;;;;;;;;;;5054274;28;20177;-68
2023/06/30 11:32:28;;;;;;;4.80;1.93;;;;;;;;;;5053720;28;20653;-68
2023/06/30 11:34:55;;;;;;;5.37;2.20;;;;;;;;;;5053617;28;20174;-68
2023/06/30 11:37:21;;;;;;;4.77;2.40;;;;;;;;;;5035587;28;20199;-68
2023/06/30 11:39:51;;;;;;;3.13;2.00;;;;;;;;;;5035803;28;20256;-68
2023/06/30 11:42:18;;;;;;;4.50;1.90;;;;;;;;;;5053839;28;20200;-68
2023/06/30 11:44:43;;;;;;;3.23;2.03;;;;;;;;;;5054106;28;20175;-68
2023/06/30 11:47:10;;;;;;;4.63;2.30;;;;;;;;;;5053225;28;20216;-68
2023/06/30 11:49:36;;;;;;;7.27;2.67;;;;;;;;;;5035568;28;20236;-68
2023/06/30 11:52:03;;;;;;;4.83;2.23;;;;;;;;;;5035285;28;20560;-69
2023/06/30 11:54:30;;;;;;;7.07;1.97;;;;;;;;;;5053166;28;20208;-68
2023/06/30 11:56:57;;;;;;;4.80;2.30;;;;;;;;;;5052582;28;20198;-69
2023/06/30 11:59:24;;;;;;;7.53;2.67;;;;;;;;;;5053112;28;20664;-69
2023/06/30 12:01:50;;;;;;;4.10;2.20;;;;;;;;;;5053105;28;20181;-69
2023/06/30 12:04:16;;;;;;;4.20;2.10;;;;;;;;;;5035361;28;20248;-68
2023/06/30 12:06:46;;;;;;;4.80;2.43;;;;;;;;;;5035132;28;20692;-69
2023/06/30 12:09:12;;;;;;;5.83;2.20;;;;;;;;;;5053190;28;20265;-69
2023/06/30 12:11:41;;;;;;;3.70;1.80;;;;;;;;;;5053216;28;20608;-69
2023/06/30 12:14:07;;;;;;;6.87;2.23;;;;;;;;;;5053576;28;20183;-69
2023/06/30 12:16:43;;;;;;;4.17;1.90;;;;;;;;;;5035489;28;20218;-68
2023/06/30 12:19:10;;;;;;;5.97;2.50;;;;;;;;;;5034806;28;20648;-69
2023/06/30 12:21:36;;;;;;;3.77;1.83;;;;;;;;;;5035351;28;20187;-69
2023/06/30 12:24:07;;;;;;;3.50;2.17;;;;;;;;;;5052725;28;20261;-69
2023/06/30 12:26:33;;;;;;;4.50;2.13;;;;;;;;;;5053180;28;20615;-69
2023/06/30 12:29:05;;;;;;;4.37;2.10;;;;;;;;;;5035008;28;20182;-68
2023/06/30 12:31:34;;;;;;;3.83;2.13;;;;;;;;;;5052850;28;20201;-69
2023/06/30 12:34:00;;;;;;;6.33;2.10;;;;;;;;;;5053040;28;20174;-69
2023/06/30 12:36:29;;;;;;;5.73;2.10;;;;;;;;;;5053435;28;20264;-69
2023/06/30 12:38:55;;;;;;;8.53;2.20;;;;;;;;;;5034834;28;20684;-69
2023/06/30 12:41:21;;;;;;;4.65;2.30;;;;;;;;;;5033724;28;20472;-69
2023/06/30 12:43:48;;;;;;;6.32;2.20;;;;;;;;;;5051778;28;20431;-69
2023/06/30 12:46:14;;;;;;;3.17;2.37;;;;;;;;;;5051493;28;20807;-69
2023/06/30 12:48:40;;;;;;;5.03;2.50;;;;;;;;;;5051655;28;20489;-69
2023/06/30 12:51:06;;;;;;;6.03;2.50;;;;;;;;;;5052620;28;20175;-69
2023/06/30 12:53:32;;;;;;;5.35;2.30;;;;;;;;;;5051577;28;20392;-69
2023/06/30 12:55:58;;;;;;;7.20;2.28;;;;;;;;;;5052272;28;20381;-68
2023/06/30 12:58:24;;;;;;;4.23;2.33;;;;;;;;;;5052793;28;20562;-68
2023/06/30 13:00:53;;;;;;;6.23;2.40;;;;;;;;;;5034835;28;20242;-69
2023/06/30 13:03:19;;;;;;;7.23;2.10;;;;;;;;;;5052553;28;20167;-69
2023/06/30 13:05:46;;;;;;;4.77;1.97;;;;;;;;;;5052820;28;20179;-68
2023/06/30 13:08:12;;;;;;;8.03;3.13;;;;;;;;;;5053106;28;20171;-69
2023/06/30 13:10:38;;;;;;;4.17;2.30;;;;;;;;;;5056442;28;20182;-68
2023/06/30 13:13:04;;;;;;;4.47;2.27;;;;;;;;;;5056770;28;20181;-68
2023/06/30 13:15:30;;;;;;;4.77;2.27;;;;;;;;;;5054951;28;20373;-68
2023/06/30 13:17:56;;;;;;;8.37;2.60;;;;;;;;;;5056180;28;20272;-68
2023/06/30 13:20:22;;;;;;;9.73;2.20;;;;;;;;;;5038070;28;20149;-69
2023/06/30 13:22:48;;;;;;;5.63;2.53;;;;;;;;;;5054735;28;20420;-68
2023/06/30 13:25:16;;;;;;;5.40;2.38;;;;;;;;;;5054697;28;20413;-68
2023/06/30 13:27:43;;;;;;;6.85;2.35;;;;;;;;;;5036667;28;20899;-69
2023/06/30 13:30:09;;;;;;;6.97;2.60;;;;;;;;;;5056157;28;20651;-69
2023/06/30 13:32:38;;;;;;;4.63;2.03;;;;;;;;;;5055842;28;20201;-69
2023/06/30 13:35:04;;;;;;;5.90;2.60;;;;;;;;;;5056321;28;20178;-69
2023/06/30 13:37:30;;;;;;;7.57;2.33;;;;;;;;;;5037652;28;20202;-68
2023/06/30 13:39:56;;;;;;;4.90;2.00;;;;;;;;;;5055497;28;20343;-69
2023/06/30 13:42:22;;;;;;;7.70;2.33;;;;;;;;;;5055601;28;20181;-68
2023/06/30 13:44:48;;;;;;;;;;;;;;;;;;5038152;28;20017;-69
2023/06/30 13:47:14;;;;;;;;;;;;;;;;;;5037970;28;19905;-69
2023/06/30 13:49:40;;;;;;;;;;;;;;;;;;5056118;28;19911;-69
2023/06/30 13:52:06;;;;;;;4.37;2.67;;;;;;;;;;5037599;28;20190;-69
2023/06/30 13:54:34;;;;;;;4.77;2.63;;;;;;;;;;5037521;28;20187;-69
2023/06/30 13:57:00;;;;;;;3.03;2.40;;;;;;;;;;5055261;28;20194;-69
2023/06/30 13:59:26;;;;;;;7.78;3.22;;;;;;;;;;5036239;28;20415;-69
2023/06/30 14:01:52;;;;;;;5.22;2.63;;;;;;;;;;5036047;28;20386;-69
2023/06/30 14:04:18;;;;;;;4.15;2.50;;;;;;;;;;5053839;28;20408;-69
2023/06/30 14:06:44;;;;;;;8.15;2.92;;;;;;;;;;5036203;28;20829;-69
2023/06/30 14:09:11;;;;;;;4.83;3.10;;;;;;;;;;5053993;28;20399;-69
2023/06/30 14:11:37;;;;;;;5.68;2.90;;;;;;;;;;5053958;28;20464;-69
2023/06/30 14:14:03;;;;;;;6.03;3.10;;;;;;;;;;5055067;28;20439;-68
2023/06/30 14:16:30;;;;;;;3.65;2.83;;;;;;;;;;5035789;28;20400;-68
2023/06/30 14:18:56;;;;;;;5.28;3.00;;;;;;;;;;5053528;28;20416;-66
2023/06/30 14:21:22;;;;;;;4.43;3.03;;;;;;;;;;5053073;28;20389;-67
2023/06/30 14:23:48;;;;;;;4.00;2.53;;;;;;;;;;5053872;28;20447;-67
2023/06/30 14:26:13;;;;;;;5.07;3.00;;;;;;;;;;5053610;28;20470;-68
2023/06/30 14:28:39;;;;;;;6.55;3.17;;;;;;;;;;5035580;28;20382;-67
2023/06/30 14:31:07;;;;;;;4.78;3.20;;;;;;;;;;5053610;28;20385;-67
2023/06/30 14:33:33;;;;;;;5.60;3.20;;;;;;;;;;5053691;28;20409;-68
2023/06/30 14:35:59;;;;;;;4.70;2.97;;;;;;;;;;5035399;28;20439;-67
2023/06/30 14:38:25;;;;;;;4.93;2.80;;;;;;;;;;5035334;28;20920;-67